sensor_id;sensor_type;location;lat;lon;timestamp;P1;durP1;ratioP1;P2;durP2;ratioP2
36797;SDS011;22748;8.426;99.512;2022-08-07T00:00:52;26.42;;;8.50;;
36797;SDS011;22748;8.426;99.512;2022-08-07T00:03:23;18.95;;;7.75;;
36797;SDS011;22748;8.426;99.512;2022-08-07T00:05:53;19.15;;;8.65;;
36797;SDS011;22748;8.426;99.512;2022-08-07T00:08:27;27.63;;;14.75;;
36797;SDS011;22748;8.426;99.512;2022-08-07T00:11:02;65.53;;;29.73;;
36797;SDS011;22748;8.426;99.512;2022-08-07T00:13:34;66.32;;;29.58;;
36797;SDS011;22748;8.426;99.512;2022-08-07T00:16:05;33.90;;;21.58;;
36797;SDS011;22748;8.426;99.512;2022-08-07T00:18:37;31.40;;;16.60;;
36797;SDS011;22748;8.426;99.512;2022-08-07T00:21:08;24.65;;;13.70;;
36797;SDS011;22748;8.426;99.512;2022-08-07T00:26:08;17.58;;;10.35;;
36797;SDS011;22748;8.426;99.512;2022-08-07T00:28:40;23.02;;;11.20;;
36797;SDS011;22748;8.426;99.512;2022-08-07T00:31:10;19.42;;;10.77;;
36797;SDS011;22748;8.426;99.512;2022-08-07T00:33:40;20.63;;;11.88;;
36797;SDS011;22748;8.426;99.512;2022-08-07T00:36:11;22.45;;;14.23;;
36797;SDS011;22748;8.426;99.512;2022-08-07T00:38:41;21.55;;;11.43;;
36797;SDS011;22748;8.426;99.512;2022-08-07T00:41:12;20.45;;;11.00;;
36797;SDS011;22748;8.426;99.512;2022-08-07T00:43:44;22.13;;;11.05;;
36797;SDS011;22748;8.426;99.512;2022-08-07T00:46:14;20.77;;;11.02;;
36797;SDS011;22748;8.426;99.512;2022-08-07T00:48:44;17.92;;;10.18;;
36797;SDS011;22748;8.426;99.512;2022-08-07T00:51:14;21.75;;;12.15;;
36797;SDS011;22748;8.426;99.512;2022-08-07T00:53:45;20.25;;;12.73;;
36797;SDS011;22748;8.426;99.512;2022-08-07T00:56:26;25.80;;;13.70;;
36797;SDS011;22748;8.426;99.512;2022-08-07T00:58:58;32.93;;;18.90;;
36797;SDS011;22748;8.426;99.512;2022-08-07T01:01:31;40.90;;;29.85;;
36797;SDS011;22748;8.426;99.512;2022-08-07T01:04:03;48.15;;;28.27;;
36797;SDS011;22748;8.426;99.512;2022-08-07T01:09:03;56.13;;;14.25;;
36797;SDS011;22748;8.426;99.512;2022-08-07T01:11:33;25.55;;;15.02;;
36797;SDS011;22748;8.426;99.512;2022-08-07T01:14:05;28.17;;;13.30;;
36797;SDS011;22748;8.426;99.512;2022-08-07T01:16:36;19.83;;;11.60;;
36797;SDS011;22748;8.426;99.512;2022-08-07T01:19:06;24.35;;;14.15;;
36797;SDS011;22748;8.426;99.512;2022-08-07T01:21:38;28.80;;;15.23;;
36797;SDS011;22748;8.426;99.512;2022-08-07T01:24:09;34.63;;;17.60;;
36797;SDS011;22748;8.426;99.512;2022-08-07T01:26:39;27.88;;;17.45;;
36797;SDS011;22748;8.426;99.512;2022-08-07T01:29:10;27.38;;;16.65;;
36797;SDS011;22748;8.426;99.512;2022-08-07T01:31:41;25.23;;;15.57;;
36797;SDS011;22748;8.426;99.512;2022-08-07T01:34:11;29.77;;;16.27;;
36797;SDS011;22748;8.426;99.512;2022-08-07T01:39:13;32.03;;;14.93;;
36797;SDS011;22748;8.426;99.512;2022-08-07T01:41:44;30.27;;;12.90;;
36797;SDS011;22748;8.426;99.512;2022-08-07T01:44:15;26.95;;;14.45;;
36797;SDS011;22748;8.426;99.512;2022-08-07T01:46:46;26.00;;;14.50;;
36797;SDS011;22748;8.426;99.512;2022-08-07T01:49:16;28.50;;;14.43;;
36797;SDS011;22748;8.426;99.512;2022-08-07T01:51:49;26.73;;;13.43;;
36797;SDS011;22748;8.426;99.512;2022-08-07T01:54:19;23.02;;;12.82;;
36797;SDS011;22748;8.426;99.512;2022-08-07T01:56:55;25.70;;;12.15;;
36797;SDS011;22748;8.426;99.512;2022-08-07T01:59:31;17.10;;;11.40;;
36797;SDS011;22748;8.426;99.512;2022-08-07T02:02:05;15.80;;;10.18;;
36797;SDS011;22748;8.426;99.512;2022-08-07T02:04:40;22.52;;;11.15;;
36797;SDS011;22748;8.426;99.512;2022-08-07T02:07:17;17.88;;;10.43;;
36797;SDS011;22748;8.426;99.512;2022-08-07T02:09:53;18.73;;;9.93;;
36797;SDS011;22748;8.426;99.512;2022-08-07T02:12:24;22.23;;;10.70;;
36797;SDS011;22748;8.426;99.512;2022-08-07T02:14:59;19.98;;;10.18;;
36797;SDS011;22748;8.426;99.512;2022-08-07T02:17:37;17.95;;;9.13;;
36797;SDS011;22748;8.426;99.512;2022-08-07T02:20:11;15.75;;;7.45;;
36797;SDS011;22748;8.426;99.512;2022-08-07T02:22:44;14.90;;;7.30;;
36797;SDS011;22748;8.426;99.512;2022-08-07T02:25:18;14.07;;;7.68;;
36797;SDS011;22748;8.426;99.512;2022-08-07T02:27:50;18.77;;;8.35;;
36797;SDS011;22748;8.426;99.512;2022-08-07T02:30:21;15.93;;;7.82;;
36797;SDS011;22748;8.426;99.512;2022-08-07T02:32:53;14.75;;;7.13;;
36797;SDS011;22748;8.426;99.512;2022-08-07T02:35:25;15.45;;;6.40;;
36797;SDS011;22748;8.426;99.512;2022-08-07T02:37:58;9.85;;;4.97;;
36797;SDS011;22748;8.426;99.512;2022-08-07T02:40:33;15.55;;;4.88;;
36797;SDS011;22748;8.426;99.512;2022-08-07T02:43:07;13.30;;;4.88;;
36797;SDS011;22748;8.426;99.512;2022-08-07T02:45:38;12.32;;;5.18;;
36797;SDS011;22748;8.426;99.512;2022-08-07T02:48:10;13.45;;;5.15;;
36797;SDS011;22748;8.426;99.512;2022-08-07T02:53:17;11.07;;;4.75;;
36797;SDS011;22748;8.426;99.512;2022-08-07T02:55:51;15.93;;;4.88;;
36797;SDS011;22748;8.426;99.512;2022-08-07T02:58:24;20.10;;;7.38;;
36797;SDS011;22748;8.426;99.512;2022-08-07T03:00:56;23.85;;;7.47;;
36797;SDS011;22748;8.426;99.512;2022-08-07T03:06:00;11.00;;;4.72;;
36797;SDS011;22748;8.426;99.512;2022-08-07T03:08:34;14.15;;;4.20;;
36797;SDS011;22748;8.426;99.512;2022-08-07T03:11:06;34.40;;;6.97;;
36797;SDS011;22748;8.426;99.512;2022-08-07T03:13:39;26.67;;;6.38;;
36797;SDS011;22748;8.426;99.512;2022-08-07T03:16:10;26.70;;;7.57;;
36797;SDS011;22748;8.426;99.512;2022-08-07T03:18:40;16.98;;;7.65;;
36797;SDS011;22748;8.426;99.512;2022-08-07T03:21:11;15.68;;;7.15;;
36797;SDS011;22748;8.426;99.512;2022-08-07T03:23:43;15.48;;;6.68;;
36797;SDS011;22748;8.426;99.512;2022-08-07T03:26:16;16.08;;;6.75;;
36797;SDS011;22748;8.426;99.512;2022-08-07T03:28:48;16.40;;;6.28;;
36797;SDS011;22748;8.426;99.512;2022-08-07T03:31:18;14.30;;;6.22;;
36797;SDS011;22748;8.426;99.512;2022-08-07T03:33:52;15.70;;;5.43;;
36797;SDS011;22748;8.426;99.512;2022-08-07T03:36:27;13.68;;;6.18;;
36797;SDS011;22748;8.426;99.512;2022-08-07T03:39:00;19.25;;;6.47;;
36797;SDS011;22748;8.426;99.512;2022-08-07T03:41:33;11.10;;;4.97;;
36797;SDS011;22748;8.426;99.512;2022-08-07T03:44:05;31.90;;;17.67;;
36797;SDS011;22748;8.426;99.512;2022-08-07T03:46:38;41.13;;;24.00;;
36797;SDS011;22748;8.426;99.512;2022-08-07T03:51:39;21.45;;;9.32;;
36797;SDS011;22748;8.426;99.512;2022-08-07T03:54:11;23.15;;;8.50;;
36797;SDS011;22748;8.426;99.512;2022-08-07T03:56:42;14.80;;;6.75;;
36797;SDS011;22748;8.426;99.512;2022-08-07T03:59:13;15.60;;;6.15;;
36797;SDS011;22748;8.426;99.512;2022-08-07T04:01:44;16.25;;;7.03;;
36797;SDS011;22748;8.426;99.512;2022-08-07T04:04:16;14.07;;;6.53;;
36797;SDS011;22748;8.426;99.512;2022-08-07T04:06:47;15.95;;;7.32;;
36797;SDS011;22748;8.426;99.512;2022-08-07T04:09:20;13.13;;;6.80;;
36797;SDS011;22748;8.426;99.512;2022-08-07T04:11:55;15.32;;;7.55;;
36797;SDS011;22748;8.426;99.512;2022-08-07T04:14:27;16.90;;;8.05;;
36797;SDS011;22748;8.426;99.512;2022-08-07T04:16:58;19.27;;;8.90;;
36797;SDS011;22748;8.426;99.512;2022-08-07T04:21:59;15.45;;;6.97;;
36797;SDS011;22748;8.426;99.512;2022-08-07T04:24:32;19.55;;;5.55;;
36797;SDS011;22748;8.426;99.512;2022-08-07T04:27:03;13.45;;;5.35;;
36797;SDS011;22748;8.426;99.512;2022-08-07T04:29:34;13.45;;;4.93;;
36797;SDS011;22748;8.426;99.512;2022-08-07T04:32:05;10.70;;;4.65;;
36797;SDS011;22748;8.426;99.512;2022-08-07T04:34:39;13.77;;;5.30;;
36797;SDS011;22748;8.426;99.512;2022-08-07T04:37:09;28.52;;;7.03;;
36797;SDS011;22748;8.426;99.512;2022-08-07T04:39:42;19.67;;;5.97;;
36797;SDS011;22748;8.426;99.512;2022-08-07T04:42:13;14.10;;;5.40;;
36797;SDS011;22748;8.426;99.512;2022-08-07T04:44:44;10.30;;;5.07;;
36797;SDS011;22748;8.426;99.512;2022-08-07T04:49:52;17.95;;;5.15;;
36797;SDS011;22748;8.426;99.512;2022-08-07T04:52:35;20.83;;;5.25;;
36797;SDS011;22748;8.426;99.512;2022-08-07T04:55:14;21.30;;;5.85;;
36797;SDS011;22748;8.426;99.512;2022-08-07T04:57:53;28.13;;;10.35;;
36797;SDS011;22748;8.426;99.512;2022-08-07T05:00:30;28.98;;;7.40;;
36797;SDS011;22748;8.426;99.512;2022-08-07T05:03:09;12.45;;;4.80;;
36797;SDS011;22748;8.426;99.512;2022-08-07T05:05:50;11.93;;;4.90;;
36797;SDS011;22748;8.426;99.512;2022-08-07T05:08:33;9.90;;;4.80;;
36797;SDS011;22748;8.426;99.512;2022-08-07T05:13:44;13.77;;;6.03;;
36797;SDS011;22748;8.426;99.512;2022-08-07T05:16:21;10.60;;;4.72;;
36797;SDS011;22748;8.426;99.512;2022-08-07T05:18:59;16.90;;;5.47;;
36797;SDS011;22748;8.426;99.512;2022-08-07T05:21:36;11.00;;;4.65;;
36797;SDS011;22748;8.426;99.512;2022-08-07T05:24:09;13.80;;;4.85;;
36797;SDS011;22748;8.426;99.512;2022-08-07T05:26:45;16.17;;;4.10;;
36797;SDS011;22748;8.426;99.512;2022-08-07T05:29:19;11.98;;;4.15;;
36797;SDS011;22748;8.426;99.512;2022-08-07T05:31:51;11.07;;;4.82;;
36797;SDS011;22748;8.426;99.512;2022-08-07T05:34:25;22.73;;;14.88;;
36797;SDS011;22748;8.426;99.512;2022-08-07T05:39:26;11.98;;;5.50;;
36797;SDS011;22748;8.426;99.512;2022-08-07T05:41:58;9.68;;;3.80;;
36797;SDS011;22748;8.426;99.512;2022-08-07T05:44:30;11.52;;;3.80;;
36797;SDS011;22748;8.426;99.512;2022-08-07T05:47:04;11.27;;;3.63;;
36797;SDS011;22748;8.426;99.512;2022-08-07T05:49:36;9.23;;;3.00;;
36797;SDS011;22748;8.426;99.512;2022-08-07T05:54:37;7.80;;;3.17;;
36797;SDS011;22748;8.426;99.512;2022-08-07T05:57:09;9.98;;;3.88;;
36797;SDS011;22748;8.426;99.512;2022-08-07T05:59:43;8.77;;;3.38;;
36797;SDS011;22748;8.426;99.512;2022-08-07T06:02:16;10.98;;;3.75;;
36797;SDS011;22748;8.426;99.512;2022-08-07T06:04:50;10.27;;;3.67;;
36797;SDS011;22748;8.426;99.512;2022-08-07T06:07:23;11.40;;;3.30;;
36797;SDS011;22748;8.426;99.512;2022-08-07T06:09:54;11.73;;;3.00;;
36797;SDS011;22748;8.426;99.512;2022-08-07T06:12:29;9.90;;;3.03;;
36797;SDS011;22748;8.426;99.512;2022-08-07T06:15:00;9.43;;;3.47;;
36797;SDS011;22748;8.426;99.512;2022-08-07T06:17:32;7.70;;;3.25;;
36797;SDS011;22748;8.426;99.512;2022-08-07T06:20:02;11.27;;;3.42;;
36797;SDS011;22748;8.426;99.512;2022-08-07T06:22:34;23.77;;;15.25;;
36797;SDS011;22748;8.426;99.512;2022-08-07T06:25:05;21.67;;;13.23;;
36797;SDS011;22748;8.426;99.512;2022-08-07T06:30:09;12.70;;;6.10;;
36797;SDS011;22748;8.426;99.512;2022-08-07T06:32:39;10.65;;;5.25;;
36797;SDS011;22748;8.426;99.512;2022-08-07T06:35:09;8.88;;;4.63;;
36797;SDS011;22748;8.426;99.512;2022-08-07T06:37:39;9.05;;;3.67;;
36797;SDS011;22748;8.426;99.512;2022-08-07T06:40:10;9.90;;;3.40;;
36797;SDS011;22748;8.426;99.512;2022-08-07T06:42:47;6.38;;;2.92;;
36797;SDS011;22748;8.426;99.512;2022-08-07T06:45:19;8.57;;;3.97;;
36797;SDS011;22748;8.426;99.512;2022-08-07T06:47:51;7.55;;;3.92;;
36797;SDS011;22748;8.426;99.512;2022-08-07T06:50:22;10.75;;;4.05;;
36797;SDS011;22748;8.426;99.512;2022-08-07T06:52:54;9.70;;;2.90;;
36797;SDS011;22748;8.426;99.512;2022-08-07T06:55:25;12.32;;;4.40;;
36797;SDS011;22748;8.426;99.512;2022-08-07T06:58:00;12.38;;;4.40;;
36797;SDS011;22748;8.426;99.512;2022-08-07T07:00:34;6.15;;;2.60;;
36797;SDS011;22748;8.426;99.512;2022-08-07T07:03:07;6.57;;;3.40;;
36797;SDS011;22748;8.426;99.512;2022-08-07T07:05:40;10.32;;;3.92;;
36797;SDS011;22748;8.426;99.512;2022-08-07T07:08:11;9.82;;;6.95;;
36797;SDS011;22748;8.426;99.512;2022-08-07T07:10:41;12.40;;;3.80;;
36797;SDS011;22748;8.426;99.512;2022-08-07T07:13:15;9.77;;;2.60;;
36797;SDS011;22748;8.426;99.512;2022-08-07T07:15:54;6.93;;;2.53;;
36797;SDS011;22748;8.426;99.512;2022-08-07T07:18:35;5.33;;;2.47;;
36797;SDS011;22748;8.426;99.512;2022-08-07T07:21:11;6.43;;;2.95;;
36797;SDS011;22748;8.426;99.512;2022-08-07T07:23:46;5.45;;;2.35;;
36797;SDS011;22748;8.426;99.512;2022-08-07T07:26:21;5.90;;;2.80;;
36797;SDS011;22748;8.426;99.512;2022-08-07T07:28:56;5.93;;;2.60;;
36797;SDS011;22748;8.426;99.512;2022-08-07T07:31:40;11.27;;;3.45;;
36797;SDS011;22748;8.426;99.512;2022-08-07T07:34:19;10.85;;;3.80;;
36797;SDS011;22748;8.426;99.512;2022-08-07T07:36:52;10.35;;;3.72;;
36797;SDS011;22748;8.426;99.512;2022-08-07T07:39:25;9.63;;;2.30;;
36797;SDS011;22748;8.426;99.512;2022-08-07T07:41:58;80.65;;;73.32;;
36797;SDS011;22748;8.426;99.512;2022-08-07T07:44:31;14.23;;;10.98;;
36797;SDS011;22748;8.426;99.512;2022-08-07T07:47:04;7.45;;;5.40;;
36797;SDS011;22748;8.426;99.512;2022-08-07T07:49:38;8.75;;;3.58;;
36797;SDS011;22748;8.426;99.512;2022-08-07T07:52:11;7.28;;;2.83;;
36797;SDS011;22748;8.426;99.512;2022-08-07T07:54:44;7.85;;;2.17;;
36797;SDS011;22748;8.426;99.512;2022-08-07T07:57:15;6.03;;;2.35;;
36797;SDS011;22748;8.426;99.512;2022-08-07T07:59:57;8.05;;;2.53;;
36797;SDS011;22748;8.426;99.512;2022-08-07T08:02:30;6.90;;;2.58;;
36797;SDS011;22748;8.426;99.512;2022-08-07T08:05:03;5.72;;;2.22;;
36797;SDS011;22748;8.426;99.512;2022-08-07T08:07:37;8.38;;;2.47;;
36797;SDS011;22748;8.426;99.512;2022-08-07T08:10:19;6.55;;;2.03;;
36797;SDS011;22748;8.426;99.512;2022-08-07T08:12:51;5.40;;;2.20;;
36797;SDS011;22748;8.426;99.512;2022-08-07T08:15:25;5.70;;;2.08;;
36797;SDS011;22748;8.426;99.512;2022-08-07T08:17:57;10.30;;;3.90;;
36797;SDS011;22748;8.426;99.512;2022-08-07T08:20:30;8.32;;;3.53;;
36797;SDS011;22748;8.426;99.512;2022-08-07T08:23:03;5.88;;;2.55;;
36797;SDS011;22748;8.426;99.512;2022-08-07T08:25:49;7.38;;;2.88;;
36797;SDS011;22748;8.426;99.512;2022-08-07T08:28:35;5.45;;;3.47;;
36797;SDS011;22748;8.426;99.512;2022-08-07T08:31:12;13.38;;;10.18;;
36797;SDS011;22748;8.426;99.512;2022-08-07T08:33:47;5.57;;;3.30;;
36797;SDS011;22748;8.426;99.512;2022-08-07T08:36:23;9.80;;;5.25;;
36797;SDS011;22748;8.426;99.512;2022-08-07T08:38:58;14.15;;;8.18;;
36797;SDS011;22748;8.426;99.512;2022-08-07T08:41:33;9.70;;;4.85;;
36797;SDS011;22748;8.426;99.512;2022-08-07T08:44:18;8.00;;;3.35;;
36797;SDS011;22748;8.426;99.512;2022-08-07T08:47:04;6.75;;;2.92;;
36797;SDS011;22748;8.426;99.512;2022-08-07T08:49:39;7.97;;;2.63;;
36797;SDS011;22748;8.426;99.512;2022-08-07T08:52:17;5.22;;;2.78;;
36797;SDS011;22748;8.426;99.512;2022-08-07T08:54:57;6.15;;;2.15;;
36797;SDS011;22748;8.426;99.512;2022-08-07T08:57:33;4.50;;;2.47;;
36797;SDS011;22748;8.426;99.512;2022-08-07T09:00:08;8.40;;;2.65;;
36797;SDS011;22748;8.426;99.512;2022-08-07T09:02:46;31.35;;;10.00;;
36797;SDS011;22748;8.426;99.512;2022-08-07T09:05:28;14.95;;;4.80;;
36797;SDS011;22748;8.426;99.512;2022-08-07T09:08:22;8.90;;;3.65;;
36797;SDS011;22748;8.426;99.512;2022-08-07T09:11:12;15.23;;;7.32;;
36797;SDS011;22748;8.426;99.512;2022-08-07T09:13:53;12.82;;;5.88;;
36797;SDS011;22748;8.426;99.512;2022-08-07T09:16:38;14.05;;;5.47;;
36797;SDS011;22748;8.426;99.512;2022-08-07T09:19:27;20.17;;;6.60;;
36797;SDS011;22748;8.426;99.512;2022-08-07T09:22:10;14.60;;;5.25;;
36797;SDS011;22748;8.426;99.512;2022-08-07T09:24:52;10.68;;;4.22;;
36797;SDS011;22748;8.426;99.512;2022-08-07T09:27:29;16.02;;;11.13;;
36797;SDS011;22748;8.426;99.512;2022-08-07T09:30:03;14.98;;;7.53;;
36797;SDS011;22748;8.426;99.512;2022-08-07T09:32:45;9.35;;;6.18;;
36797;SDS011;22748;8.426;99.512;2022-08-07T09:35:39;8.05;;;5.55;;
36797;SDS011;22748;8.426;99.512;2022-08-07T09:38:18;5.45;;;3.13;;
36797;SDS011;22748;8.426;99.512;2022-08-07T09:41:01;7.20;;;3.00;;
36797;SDS011;22748;8.426;99.512;2022-08-07T09:43:43;6.20;;;2.35;;
36797;SDS011;22748;8.426;99.512;2022-08-07T09:46:35;10.95;;;3.42;;
36797;SDS011;22748;8.426;99.512;2022-08-07T09:49:20;8.82;;;2.88;;
36797;SDS011;22748;8.426;99.512;2022-08-07T09:52:15;10.25;;;3.38;;
36797;SDS011;22748;8.426;99.512;2022-08-07T09:54:55;8.15;;;3.15;;
36797;SDS011;22748;8.426;99.512;2022-08-07T10:00:31;9.95;;;3.75;;
36797;SDS011;22748;8.426;99.512;2022-08-07T10:03:33;10.30;;;4.38;;
36797;SDS011;22748;8.426;99.512;2022-08-07T10:06:13;10.93;;;5.30;;
36797;SDS011;22748;8.426;99.512;2022-08-07T10:09:06;7.30;;;5.10;;
36797;SDS011;22748;8.426;99.512;2022-08-07T10:11:50;29.42;;;17.33;;
36797;SDS011;22748;8.426;99.512;2022-08-07T10:14:37;98.05;;;59.42;;
36797;SDS011;22748;8.426;99.512;2022-08-07T10:17:38;48.33;;;31.48;;
36797;SDS011;22748;8.426;99.512;2022-08-07T10:20:24;13.20;;;8.27;;
36797;SDS011;22748;8.426;99.512;2022-08-07T10:23:11;16.35;;;9.00;;
36797;SDS011;22748;8.426;99.512;2022-08-07T10:26:10;20.42;;;9.80;;
36797;SDS011;22748;8.426;99.512;2022-08-07T10:29:02;17.35;;;8.98;;
36797;SDS011;22748;8.426;99.512;2022-08-07T10:31:49;11.88;;;5.70;;
36797;SDS011;22748;8.426;99.512;2022-08-07T10:34:38;9.05;;;5.07;;
36797;SDS011;22748;8.426;99.512;2022-08-07T10:37:26;10.38;;;4.13;;
36797;SDS011;22748;8.426;99.512;2022-08-07T10:40:10;7.72;;;3.28;;
36797;SDS011;22748;8.426;99.512;2022-08-07T10:42:55;7.65;;;3.50;;
36797;SDS011;22748;8.426;99.512;2022-08-07T10:45:34;9.18;;;4.18;;
36797;SDS011;22748;8.426;99.512;2022-08-07T10:48:13;25.00;;;21.83;;
36797;SDS011;22748;8.426;99.512;2022-08-07T10:50:56;10.20;;;6.20;;
36797;SDS011;22748;8.426;99.512;2022-08-07T10:53:35;7.28;;;4.80;;
36797;SDS011;22748;8.426;99.512;2022-08-07T10:56:14;8.05;;;4.32;;
36797;SDS011;22748;8.426;99.512;2022-08-07T10:59:00;6.55;;;4.15;;
36797;SDS011;22748;8.426;99.512;2022-08-07T11:01:47;9.73;;;4.43;;
36797;SDS011;22748;8.426;99.512;2022-08-07T11:04:27;8.20;;;4.82;;
36797;SDS011;22748;8.426;99.512;2022-08-07T11:07:17;11.40;;;10.25;;
36797;SDS011;22748;8.426;99.512;2022-08-07T11:09:57;10.98;;;7.03;;
36797;SDS011;22748;8.426;99.512;2022-08-07T11:12:33;13.23;;;7.63;;
36797;SDS011;22748;8.426;99.512;2022-08-07T11:15:12;15.27;;;9.82;;
36797;SDS011;22748;8.426;99.512;2022-08-07T11:17:51;15.90;;;9.20;;
36797;SDS011;22748;8.426;99.512;2022-08-07T11:20:36;13.60;;;8.82;;
36797;SDS011;22748;8.426;99.512;2022-08-07T11:23:16;24.10;;;11.57;;
36797;SDS011;22748;8.426;99.512;2022-08-07T11:25:53;50.33;;;16.08;;
36797;SDS011;22748;8.426;99.512;2022-08-07T11:28:34;19.33;;;9.65;;
36797;SDS011;22748;8.426;99.512;2022-08-07T11:31:12;14.95;;;8.27;;
36797;SDS011;22748;8.426;99.512;2022-08-07T11:33:56;13.50;;;8.10;;
36797;SDS011;22748;8.426;99.512;2022-08-07T11:36:39;12.35;;;7.05;;
36797;SDS011;22748;8.426;99.512;2022-08-07T11:39:18;13.55;;;6.85;;
36797;SDS011;22748;8.426;99.512;2022-08-07T11:42:09;16.00;;;7.13;;
36797;SDS011;22748;8.426;99.512;2022-08-07T11:44:48;17.45;;;7.28;;
36797;SDS011;22748;8.426;99.512;2022-08-07T11:47:28;11.80;;;7.85;;
36797;SDS011;22748;8.426;99.512;2022-08-07T11:50:13;11.43;;;8.18;;
36797;SDS011;22748;8.426;99.512;2022-08-07T11:52:54;15.27;;;10.38;;
36797;SDS011;22748;8.426;99.512;2022-08-07T11:55:42;19.83;;;12.27;;
36797;SDS011;22748;8.426;99.512;2022-08-07T11:58:29;17.92;;;10.88;;
36797;SDS011;22748;8.426;99.512;2022-08-07T12:01:16;19.58;;;9.15;;
36797;SDS011;22748;8.426;99.512;2022-08-07T12:04:06;14.95;;;7.85;;
36797;SDS011;22748;8.426;99.512;2022-08-07T12:06:46;10.82;;;7.43;;
36797;SDS011;22748;8.426;99.512;2022-08-07T12:09:22;14.35;;;7.45;;
36797;SDS011;22748;8.426;99.512;2022-08-07T12:12:07;17.83;;;7.53;;
36797;SDS011;22748;8.426;99.512;2022-08-07T12:14:48;14.50;;;7.10;;
36797;SDS011;22748;8.426;99.512;2022-08-07T12:17:29;15.15;;;7.80;;
36797;SDS011;22748;8.426;99.512;2022-08-07T12:20:11;13.77;;;9.32;;
36797;SDS011;22748;8.426;99.512;2022-08-07T12:22:54;20.52;;;14.07;;
36797;SDS011;22748;8.426;99.512;2022-08-07T12:25:45;28.73;;;18.13;;
36797;SDS011;22748;8.426;99.512;2022-08-07T12:28:24;22.98;;;14.30;;
36797;SDS011;22748;8.426;99.512;2022-08-07T12:31:02;30.58;;;21.08;;
36797;SDS011;22748;8.426;99.512;2022-08-07T12:33:45;47.72;;;30.45;;
36797;SDS011;22748;8.426;99.512;2022-08-07T12:36:17;55.78;;;41.63;;
36797;SDS011;22748;8.426;99.512;2022-08-07T12:38:49;81.97;;;60.45;;
36797;SDS011;22748;8.426;99.512;2022-08-07T12:41:23;78.50;;;61.42;;
36797;SDS011;22748;8.426;99.512;2022-08-07T12:43:54;63.90;;;48.60;;
36797;SDS011;22748;8.426;99.512;2022-08-07T12:46:32;49.30;;;37.92;;
36797;SDS011;22748;8.426;99.512;2022-08-07T12:49:20;43.35;;;29.55;;
36797;SDS011;22748;8.426;99.512;2022-08-07T12:52:03;33.95;;;24.73;;
36797;SDS011;22748;8.426;99.512;2022-08-07T12:54:39;39.80;;;24.50;;
36797;SDS011;22748;8.426;99.512;2022-08-07T12:57:21;32.78;;;22.13;;
36797;SDS011;22748;8.426;99.512;2022-08-07T12:59:59;34.55;;;22.17;;
36797;SDS011;22748;8.426;99.512;2022-08-07T13:02:41;33.08;;;22.50;;
36797;SDS011;22748;8.426;99.512;2022-08-07T13:05:37;41.65;;;27.25;;
36797;SDS011;22748;8.426;99.512;2022-08-07T13:08:32;49.78;;;34.17;;
36797;SDS011;22748;8.426;99.512;2022-08-07T13:11:22;63.63;;;41.30;;
36797;SDS011;22748;8.426;99.512;2022-08-07T13:14:02;67.57;;;46.85;;
36797;SDS011;22748;8.426;99.512;2022-08-07T13:16:46;78.30;;;53.20;;
36797;SDS011;22748;8.426;99.512;2022-08-07T13:19:28;63.00;;;42.22;;
36797;SDS011;22748;8.426;99.512;2022-08-07T13:22:09;56.60;;;37.80;;
36797;SDS011;22748;8.426;99.512;2022-08-07T13:24:47;53.38;;;34.78;;
36797;SDS011;22748;8.426;99.512;2022-08-07T13:27:23;54.42;;;37.00;;
36797;SDS011;22748;8.426;99.512;2022-08-07T13:30:02;49.83;;;35.90;;
36797;SDS011;22748;8.426;99.512;2022-08-07T13:32:37;54.65;;;39.15;;
36797;SDS011;22748;8.426;99.512;2022-08-07T13:35:15;46.67;;;34.05;;
36797;SDS011;22748;8.426;99.512;2022-08-07T13:37:56;44.67;;;31.95;;
36797;SDS011;22748;8.426;99.512;2022-08-07T13:40:36;36.35;;;28.15;;
36797;SDS011;22748;8.426;99.512;2022-08-07T13:43:17;35.53;;;23.27;;
36797;SDS011;22748;8.426;99.512;2022-08-07T13:45:53;29.48;;;20.40;;
36797;SDS011;22748;8.426;99.512;2022-08-07T13:48:27;37.10;;;23.55;;
36797;SDS011;22748;8.426;99.512;2022-08-07T13:51:01;30.90;;;22.90;;
36797;SDS011;22748;8.426;99.512;2022-08-07T13:53:34;32.05;;;21.80;;
36797;SDS011;22748;8.426;99.512;2022-08-07T13:56:10;38.22;;;26.10;;
36797;SDS011;22748;8.426;99.512;2022-08-07T13:58:45;37.50;;;29.95;;
36797;SDS011;22748;8.426;99.512;2022-08-07T14:01:32;38.92;;;27.30;;
36797;SDS011;22748;8.426;99.512;2022-08-07T14:04:06;37.65;;;24.13;;
36797;SDS011;22748;8.426;99.512;2022-08-07T14:06:39;35.72;;;21.45;;
36797;SDS011;22748;8.426;99.512;2022-08-07T14:09:15;33.17;;;22.95;;
36797;SDS011;22748;8.426;99.512;2022-08-07T14:11:52;32.90;;;23.17;;
36797;SDS011;22748;8.426;99.512;2022-08-07T14:14:25;32.00;;;22.35;;
36797;SDS011;22748;8.426;99.512;2022-08-07T14:16:59;32.10;;;21.33;;
36797;SDS011;22748;8.426;99.512;2022-08-07T14:19:35;32.63;;;22.92;;
36797;SDS011;22748;8.426;99.512;2022-08-07T14:22:13;38.75;;;23.90;;
36797;SDS011;22748;8.426;99.512;2022-08-07T14:24:47;42.30;;;24.40;;
36797;SDS011;22748;8.426;99.512;2022-08-07T14:27:25;43.17;;;25.85;;
36797;SDS011;22748;8.426;99.512;2022-08-07T14:30:03;44.63;;;30.08;;
36797;SDS011;22748;8.426;99.512;2022-08-07T14:32:38;50.85;;;29.42;;
36797;SDS011;22748;8.426;99.512;2022-08-07T14:35:14;53.30;;;33.22;;
36797;SDS011;22748;8.426;99.512;2022-08-07T14:37:49;46.85;;;28.00;;
36797;SDS011;22748;8.426;99.512;2022-08-07T14:40:21;34.50;;;22.65;;
36797;SDS011;22748;8.426;99.512;2022-08-07T14:42:59;30.55;;;19.73;;
36797;SDS011;22748;8.426;99.512;2022-08-07T14:45:33;27.35;;;18.48;;
36797;SDS011;22748;8.426;99.512;2022-08-07T14:48:12;23.30;;;17.17;;
36797;SDS011;22748;8.426;99.512;2022-08-07T14:50:46;31.65;;;20.85;;
36797;SDS011;22748;8.426;99.512;2022-08-07T14:53:19;39.40;;;21.75;;
36797;SDS011;22748;8.426;99.512;2022-08-07T14:55:52;29.13;;;19.25;;
36797;SDS011;22748;8.426;99.512;2022-08-07T14:58:30;34.70;;;21.58;;
36797;SDS011;22748;8.426;99.512;2022-08-07T15:01:02;32.63;;;21.92;;
36797;SDS011;22748;8.426;99.512;2022-08-07T15:03:34;41.42;;;26.30;;
36797;SDS011;22748;8.426;99.512;2022-08-07T15:06:07;36.80;;;23.65;;
36797;SDS011;22748;8.426;99.512;2022-08-07T15:08:39;29.90;;;22.45;;
36797;SDS011;22748;8.426;99.512;2022-08-07T15:11:18;28.88;;;21.10;;
36797;SDS011;22748;8.426;99.512;2022-08-07T15:13:55;26.25;;;20.42;;
36797;SDS011;22748;8.426;99.512;2022-08-07T15:16:34;29.33;;;20.20;;
36797;SDS011;22748;8.426;99.512;2022-08-07T15:19:09;26.58;;;18.67;;
36797;SDS011;22748;8.426;99.512;2022-08-07T15:21:43;31.35;;;19.67;;
36797;SDS011;22748;8.426;99.512;2022-08-07T15:24:17;27.70;;;18.63;;
36797;SDS011;22748;8.426;99.512;2022-08-07T15:26:54;36.65;;;22.67;;
36797;SDS011;22748;8.426;99.512;2022-08-07T15:29:33;35.20;;;23.20;;
36797;SDS011;22748;8.426;99.512;2022-08-07T15:32:07;41.33;;;23.58;;
36797;SDS011;22748;8.426;99.512;2022-08-07T15:34:42;33.88;;;22.08;;
36797;SDS011;22748;8.426;99.512;2022-08-07T15:37:16;32.58;;;21.02;;
36797;SDS011;22748;8.426;99.512;2022-08-07T15:39:48;31.73;;;19.05;;
36797;SDS011;22748;8.426;99.512;2022-08-07T15:42:35;24.58;;;17.45;;
36797;SDS011;22748;8.426;99.512;2022-08-07T15:45:24;25.52;;;17.77;;
36797;SDS011;22748;8.426;99.512;2022-08-07T15:47:59;26.13;;;18.38;;
36797;SDS011;22748;8.426;99.512;2022-08-07T15:50:35;24.40;;;18.27;;
36797;SDS011;22748;8.426;99.512;2022-08-07T15:53:10;26.30;;;20.15;;
36797;SDS011;22748;8.426;99.512;2022-08-07T15:55:43;29.10;;;20.23;;
36797;SDS011;22748;8.426;99.512;2022-08-07T15:58:20;31.52;;;19.83;;